Time;durP1;ratioP1;P1;durP2;ratioP2;P2;SDS_P1;SDS_P2;PMS_P1;PMS_P2;Temp;Humidity;BMP_temperature;BMP_pressure;BME280_temperature;BME280_humidity;BME280_pressure;Samples;Min_cycle;Max_cycle;Signal;HPM_P1;HPM_P2
2022/05/07 00:01:50;;;;;;;12.27;7.40;;;;;;;;;;8293584;28;20046;-82
2022/05/07 00:05:54;;;;;;;22.05;11.05;;;;;;;;;;8298849;28;20049;-82
2022/05/07 00:09:56;;;;;;;12.38;8.52;;;;;;;;;;8283289;28;20104;-83
2022/05/07 00:13:59;;;;;;;13.25;6.82;;;;;;;;;;8284907;28;20042;-84
2022/05/07 00:18:05;;;;;;;14.00;7.43;;;;;;;;;;8292962;28;20133;-83
2022/05/07 00:22:09;;;;;;;16.88;8.82;;;;;;;;;;8292457;28;20084;-86
2022/05/07 00:26:12;;;;;;;11.00;6.88;;;;;;;;;;8288654;28;20045;-85
2022/05/07 00:30:14;;;;;;;12.80;7.15;;;;;;;;;;8287549;28;20052;-84
2022/05/07 00:34:17;;;;;;;13.95;7.40;;;;;;;;;;8296570;28;20042;-83
2022/05/07 00:38:21;;;;;;;13.88;6.68;;;;;;;;;;8277172;28;20035;-83
2022/05/07 00:42:23;;;;;;;13.05;6.70;;;;;;;;;;8276357;28;20053;-82
2022/05/07 00:46:27;;;;;;;14.63;7.55;;;;;;;;;;8289860;28;20050;-84
2022/05/07 00:54:52;;;;;;;13.45;7.00;;;;;;;;;;8286966;28;20049;-83
2022/05/07 00:58:57;;;;;;;15.95;8.00;;;;;;;;;;8291548;28;20091;-82
2022/05/07 01:02:59;;;;;;;19.30;8.68;;;;;;;;;;8289232;28;20060;-83
2022/05/07 01:07:03;;;;;;;12.50;7.40;;;;;;;;;;8294240;28;20052;-84
2022/05/07 01:11:07;;;;;;;13.55;7.53;;;;;;;;;;8289405;28;20041;-84
2022/05/07 01:15:11;;;;;;;14.18;7.60;;;;;;;;;;8290810;28;20045;-82
2022/05/07 01:19:14;;;;;;;14.68;7.40;;;;;;;;;;8288218;28;20057;-82
2022/05/07 01:23:18;;;;;;;15.07;7.63;;;;;;;;;;8287744;28;20042;-83
2022/05/07 01:27:21;;;;;;;14.32;7.72;;;;;;;;;;8289564;28;20054;-82
2022/05/07 01:31:26;;;;;;;13.13;7.72;;;;;;;;;;8292339;28;20413;-82
2022/05/07 01:35:28;;;;;;;14.38;7.70;;;;;;;;;;8289181;28;20378;-83
2022/05/07 01:39:33;;;;;;;18.30;8.80;;;;;;;;;;8296099;28;20042;-83
2022/05/07 01:43:35;;;;;;;20.30;7.57;;;;;;;;;;8296439;28;20052;-82
2022/05/07 01:51:58;;;;;;;17.52;8.38;;;;;;;;;;8302379;28;20046;-83
2022/05/07 01:56:02;;;;;;;15.70;7.82;;;;;;;;;;8301953;28;20053;-83
2022/05/07 02:00:05;;;;;;;14.50;7.72;;;;;;;;;;8294141;28;20052;-83
2022/05/07 02:04:08;;;;;;;14.48;8.18;;;;;;;;;;8301211;28;20060;-83
2022/05/07 02:08:10;;;;;;;14.48;6.93;;;;;;;;;;8301253;28;20045;-84
2022/05/07 02:12:14;;;;;;;14.95;7.72;;;;;;;;;;8301869;28;20046;-85
2022/05/07 02:16:17;;;;;;;14.90;8.07;;;;;;;;;;8302356;28;20485;-82
2022/05/07 02:20:20;;;;;;;13.85;7.97;;;;;;;;;;8299434;28;20068;-83
2022/05/07 02:24:22;;;;;;;12.82;7.35;;;;;;;;;;8300839;28;20397;-83
2022/05/07 02:28:26;;;;;;;13.88;7.68;;;;;;;;;;8299144;28;20057;-83
2022/05/07 02:32:29;;;;;;;16.67;7.72;;;;;;;;;;8300211;28;20409;-83
2022/05/07 02:36:32;;;;;;;16.63;7.82;;;;;;;;;;8299674;28;20042;-83
2022/05/07 02:42:33;;;;;;;15.82;7.72;;;;;;;;;;8298711;28;20042;-83
2022/05/07 02:44:59;;;;;;;18.23;8.15;;;;;;;;;;8301092;28;20049;-83
2022/05/07 02:49:02;;;;;;;14.00;8.27;;;;;;;;;;8298570;28;20058;-83
2022/05/07 02:53:04;;;;;;;15.20;8.18;;;;;;;;;;8305767;28;20440;-83
2022/05/07 02:57:07;;;;;;;11.70;6.50;;;;;;;;;;8304863;28;20050;-83
2022/05/07 03:01:11;;;;;;;19.00;8.52;;;;;;;;;;8298497;28;20041;-84
2022/05/07 03:05:14;;;;;;;14.95;7.78;;;;;;;;;;8300701;28;20509;-83
2022/05/07 03:09:16;;;;;;;17.75;8.43;;;;;;;;;;8298912;28;20494;-84
2022/05/07 03:13:19;;;;;;;14.43;7.60;;;;;;;;;;8292294;28;20050;-83
2022/05/07 03:17:26;;;;;;;14.90;8.10;;;;;;;;;;8298432;28;20058;-84
2022/05/07 03:21:28;;;;;;;15.90;8.68;;;;;;;;;;8286533;28;20048;-83
2022/05/07 03:25:31;;;;;;;12.50;7.65;;;;;;;;;;8300187;28;20137;-83
2022/05/07 03:29:33;;;;;;;13.63;8.70;;;;;;;;;;8298050;28;20133;-84
2022/05/07 03:33:37;;;;;;;17.65;9.38;;;;;;;;;;8299262;28;20046;-85
2022/05/07 03:37:40;;;;;;;13.63;8.15;;;;;;;;;;8288332;28;20046;-84
2022/05/07 03:41:43;;;;;;;15.98;9.82;;;;;;;;;;8293647;28;20045;-84
2022/05/07 03:45:45;;;;;;;25.95;13.57;;;;;;;;;;8298042;28;20054;-83
2022/05/07 03:49:49;;;;;;;18.00;9.43;;;;;;;;;;8299039;28;20105;-83
2022/05/07 03:53:51;;;;;;;16.27;9.35;;;;;;;;;;8298749;28;20046;-83
2022/05/07 03:57:55;;;;;;;18.50;9.52;;;;;;;;;;8298364;28;20049;-83
2022/05/07 04:01:58;;;;;;;17.95;9.38;;;;;;;;;;8296454;28;20042;-84
2022/05/07 04:06:02;;;;;;;16.52;9.52;;;;;;;;;;8297499;28;20042;-83
2022/05/07 04:10:06;;;;;;;18.73;10.73;;;;;;;;;;8288628;28;20049;-83
2022/05/07 04:14:08;;;;;;;21.77;10.35;;;;;;;;;;8298163;28;20042;-83
2022/05/07 04:18:11;;;;;;;28.25;13.38;;;;;;;;;;8298100;28;20054;-83
2022/05/07 04:22:15;;;;;;;22.83;11.18;;;;;;;;;;8298165;28;20096;-83
2022/05/07 04:26:18;;;;;;;22.42;10.40;;;;;;;;;;8296602;28;20119;-83
2022/05/07 04:30:20;;;;;;;19.13;9.98;;;;;;;;;;8296681;28;20041;-84
2022/05/07 04:34:23;;;;;;;23.63;9.55;;;;;;;;;;8297506;28;20434;-83
2022/05/07 04:38:27;;;;;;;19.00;10.45;;;;;;;;;;8296512;28;20046;-83
2022/05/07 04:42:30;;;;;;;27.92;16.45;;;;;;;;;;8295607;28;20042;-84
2022/05/07 04:46:32;;;;;;;23.45;14.20;;;;;;;;;;8297276;28;20049;-83
2022/05/07 04:50:35;;;;;;;19.33;11.82;;;;;;;;;;8296801;28;20050;-83
2022/05/07 04:54:40;;;;;;;19.20;10.07;;;;;;;;;;8296832;28;20045;-83
2022/05/07 04:58:42;;;;;;;20.23;10.75;;;;;;;;;;8278256;28;20053;-84
2022/05/07 05:02:45;;;;;;;22.88;11.73;;;;;;;;;;8295919;28;20562;-84
2022/05/07 05:06:48;;;;;;;19.02;10.82;;;;;;;;;;8293990;28;20045;-83
2022/05/07 05:10:52;;;;;;;26.15;12.93;;;;;;;;;;8295630;28;20503;-84
2022/05/07 05:15:04;;;;;;;18.77;10.45;;;;;;;;;;8296998;28;20088;-83
2022/05/07 05:19:06;;;;;;;19.92;10.88;;;;;;;;;;8296260;28;20054;-80
2022/05/07 05:23:09;;;;;;;19.00;11.15;;;;;;;;;;8301609;28;20103;-81
2022/05/07 05:27:13;;;;;;;24.95;13.20;;;;;;;;;;8295664;28;20056;-81
2022/05/07 05:31:16;;;;;;;23.73;11.13;;;;;;;;;;8301835;28;20049;-81
2022/05/07 05:35:19;;;;;;;35.90;13.68;;;;;;;;;;8300374;28;20050;-82
2022/05/07 05:39:21;;;;;;;41.53;17.80;;;;;;;;;;8299631;28;20087;-81
2022/05/07 05:43:25;;;;;;;28.23;13.95;;;;;;;;;;8303558;28;20056;-82
2022/05/07 05:47:27;;;;;;;19.38;10.38;;;;;;;;;;8297589;28;20464;-84
2022/05/07 05:51:30;;;;;;;24.58;12.43;;;;;;;;;;8301945;28;20514;-82
2022/05/07 05:55:33;;;;;;;30.98;13.55;;;;;;;;;;8302207;28;20137;-83
2022/05/07 05:59:38;;;;;;;25.10;11.93;;;;;;;;;;8303984;28;20403;-85
2022/05/07 06:03:40;;;;;;;24.80;10.98;;;;;;;;;;8303465;28;20128;-83
2022/05/07 06:07:44;;;;;;;21.40;11.00;;;;;;;;;;8302354;28;20410;-82
2022/05/07 06:11:46;;;;;;;19.80;10.80;;;;;;;;;;8301850;28;20092;-85
2022/05/07 06:15:52;;;;;;;23.88;12.23;;;;;;;;;;8288147;28;20053;-85
2022/05/07 06:19:55;;;;;;;19.65;11.55;;;;;;;;;;8302527;28;20120;-82
2022/05/07 06:27:28;;;;;;;28.45;12.57;;;;;;;;;;8302259;28;20052;-81
2022/05/07 06:28:22;;;;;;;21.90;11.65;;;;;;;;;;8301333;28;20058;-82
2022/05/07 06:32:35;;;;;;;20.45;10.52;;;;;;;;;;8300652;28;20598;-84
2022/05/07 06:36:37;;;;;;;23.90;11.57;;;;;;;;;;8299243;28;20478;-82
2022/05/07 06:40:40;;;;;;;10.65;7.43;;;;;;;;;;8297324;28;20049;-81
2022/05/07 06:44:44;;;;;;;13.30;7.40;;;;;;;;;;8301179;28;20037;-81
2022/05/07 06:48:50;;;;;;;10.05;6.30;;;;;;;;;;8294327;28;20474;-82
2022/05/07 06:52:53;;;;;;;11.70;6.00;;;;;;;;;;8300163;28;20044;-82
2022/05/07 06:56:59;;;;;;;10.93;5.65;;;;;;;;;;8279675;28;20347;-82
2022/05/07 07:01:05;;;;;;;21.08;5.60;;;;;;;;;;8277525;28;20042;-83
2022/05/07 07:05:11;;;;;;;11.95;7.07;;;;;;;;;;8283578;28;20627;-85
2022/05/07 07:09:14;;;;;;;8.45;5.55;;;;;;;;;;8286844;28;20054;-83
2022/05/07 07:13:17;;;;;;;8.73;5.35;;;;;;;;;;8275089;28;20057;-85
2022/05/07 07:17:20;;;;;;;12.93;6.03;;;;;;;;;;8289630;28;20066;-81
2022/05/07 07:21:24;;;;;;;11.18;4.78;;;;;;;;;;8294408;28;20097;-84
2022/05/07 07:25:27;;;;;;;9.13;4.88;;;;;;;;;;8288169;28;20050;-83
2022/05/07 07:29:34;;;;;;;10.63;5.18;;;;;;;;;;8288154;28;20046;-84
2022/05/07 07:33:41;;;;;;;8.15;4.30;;;;;;;;;;8291151;28;20061;-86
2022/05/07 07:37:46;;;;;;;9.48;4.80;;;;;;;;;;8288785;28;20050;-82
2022/05/07 07:41:49;;;;;;;7.57;4.30;;;;;;;;;;8285234;28;20046;-85
2022/05/07 07:50:14;;;;;;;8.15;4.15;;;;;;;;;;8292118;28;20046;-84
2022/05/07 07:54:18;;;;;;;5.60;3.30;;;;;;;;;;8293596;28;20049;-82
2022/05/07 07:58:24;;;;;;;12.27;3.47;;;;;;;;;;8285155;28;20449;-82
2022/05/07 08:02:28;;;;;;;3.50;2.00;;;;;;;;;;8287951;28;20049;-83
2022/05/07 08:06:31;;;;;;;11.90;3.20;;;;;;;;;;8289818;28;20033;-82
2022/05/07 08:14:55;;;;;;;8.13;3.03;;;;;;;;;;8296457;28;20046;-82
2022/05/07 08:18:58;;;;;;;5.22;2.72;;;;;;;;;;8298532;28;20064;-83
2022/05/07 08:23:01;;;;;;;6.00;2.30;;;;;;;;;;8298756;28;20559;-84
2022/05/07 08:27:07;;;;;;;13.32;2.70;;;;;;;;;;8290700;28;20460;-81
2022/05/07 08:31:11;;;;;;;6.75;2.88;;;;;;;;;;8297713;28;20413;-82
2022/05/07 08:35:14;;;;;;;2.90;2.15;;;;;;;;;;8298321;28;20046;-81
2022/05/07 08:39:18;;;;;;;4.63;1.90;;;;;;;;;;8298474;28;20042;-82
2022/05/07 08:43:22;;;;;;;2.88;1.90;;;;;;;;;;8297920;28;20046;-83
2022/05/07 08:47:25;;;;;;;3.92;2.20;;;;;;;;;;8298433;28;20461;-81
2022/05/07 08:51:30;;;;;;;5.30;2.72;;;;;;;;;;8297807;28;20095;-81
2022/05/07 08:55:33;;;;;;;4.97;3.10;;;;;;;;;;8297397;28;20084;-82
2022/05/07 08:59:38;;;;;;;5.68;3.08;;;;;;;;;;8297723;28;20504;-83
2022/05/07 09:03:43;;;;;;;7.72;3.08;;;;;;;;;;8297517;28;20456;-82
2022/05/07 09:07:56;;;;;;;4.80;2.75;;;;;;;;;;8297604;28;20046;-82
2022/05/07 09:12:00;;;;;;;6.35;3.22;;;;;;;;;;8297826;28;20050;-82
2022/05/07 09:16:08;;;;;;;6.15;2.53;;;;;;;;;;8297290;28;20049;-82
2022/05/07 09:20:12;;;;;;;6.35;2.95;;;;;;;;;;8297365;28;20046;-82
2022/05/07 09:24:18;;;;;;;5.25;2.78;;;;;;;;;;8296896;28;20048;-83
2022/05/07 09:28:28;;;;;;;3.67;2.30;;;;;;;;;;8297130;28;20076;-82
2022/05/07 09:32:41;;;;;;;5.32;2.90;;;;;;;;;;8293034;28;20133;-83
2022/05/07 09:36:44;;;;;;;5.72;2.80;;;;;;;;;;8291348;28;20046;-79
2022/05/07 09:40:48;;;;;;;4.88;2.40;;;;;;;;;;8292548;28;20525;-86
2022/05/07 09:44:52;;;;;;;6.15;2.75;;;;;;;;;;8300001;28;20052;-81
2022/05/07 09:48:59;;;;;;;5.07;2.97;;;;;;;;;;8276296;28;20410;-81
2022/05/07 09:57:34;;;;;;;7.25;3.13;;;;;;;;;;8289368;28;20060;-80
2022/05/07 10:02:08;;;;;;;7.20;3.15;;;;;;;;;;8286437;28;20065;-83
2022/05/07 10:06:41;;;;;;;9.93;2.92;;;;;;;;;;8295568;28;20410;-85
2022/05/07 10:10:50;;;;;;;13.60;4.05;;;;;;;;;;8294049;28;20401;-86
2022/05/07 10:14:53;;;;;;;6.32;3.05;;;;;;;;;;8299600;28;20383;-90
2022/05/07 10:18:56;;;;;;;5.00;2.80;;;;;;;;;;8295669;28;20088;-84
2022/05/07 10:23:01;;;;;;;5.03;2.92;;;;;;;;;;8292414;28;20500;-81
2022/05/07 10:27:05;;;;;;;5.90;2.95;;;;;;;;;;8300288;28;20077;-87
2022/05/07 10:31:18;;;;;;;6.20;2.90;;;;;;;;;;8283364;28;20050;-88
2022/05/07 10:35:40;;;;;;;6.57;3.60;;;;;;;;;;8293619;28;20046;-81
2022/05/07 10:39:53;;;;;;;5.63;3.28;;;;;;;;;;8289899;28;20169;-84
2022/05/07 10:44:07;;;;;;;40.35;27.67;;;;;;;;;;8296168;28;20486;-81
2022/05/07 10:48:20;;;;;;;5.95;3.38;;;;;;;;;;8289399;28;20489;-81
2022/05/07 10:52:33;;;;;;;11.93;3.80;;;;;;;;;;8316191;28;20076;-91
2022/05/07 10:56:47;;;;;;;6.57;3.30;;;;;;;;;;8295964;28;20050;-91
2022/05/07 11:00:52;;;;;;;8.30;3.35;;;;;;;;;;8295744;28;20042;-91
2022/05/07 11:04:55;;;;;;;5.72;2.38;;;;;;;;;;8297424;28;20045;-90
2022/05/07 11:08:57;;;;;;;10.40;6.45;;;;;;;;;;8299595;28;20052;-90
2022/05/07 11:13:09;;;;;;;4.70;2.67;;;;;;;;;;8301000;28;20054;-91
2022/05/07 11:17:16;;;;;;;6.45;2.88;;;;;;;;;;8299491;28;20727;-85
2022/05/07 11:21:20;;;;;;;4.00;2.45;;;;;;;;;;8297782;28;20045;-84
2022/05/07 11:25:25;;;;;;;5.78;3.13;;;;;;;;;;8296149;28;20049;-90
2022/05/07 11:29:31;;;;;;;4.50;3.17;;;;;;;;;;8298740;28;20044;-81
2022/05/07 11:33:33;;;;;;;6.28;2.50;;;;;;;;;;8286543;28;20049;-88
2022/05/07 11:37:41;;;;;;;2.97;2.22;;;;;;;;;;8292967;28;20099;-80
2022/05/07 11:41:43;;;;;;;4.82;2.60;;;;;;;;;;8297909;28;20081;-80
2022/05/07 11:45:48;;;;;;;4.72;2.45;;;;;;;;;;8298768;28;20038;-79
2022/05/07 11:50:05;;;;;;;5.35;2.50;;;;;;;;;;8293528;28;20049;-78
2022/05/07 11:54:11;;;;;;;6.43;2.42;;;;;;;;;;8310237;28;20045;-78
2022/05/07 11:58:16;;;;;;;5.32;2.47;;;;;;;;;;8297892;28;20133;-78
2022/05/07 12:02:21;;;;;;;5.65;2.47;;;;;;;;;;8297694;28;20049;-78
2022/05/07 12:06:25;;;;;;;7.95;2.42;;;;;;;;;;8298393;28;20141;-78
2022/05/07 12:10:28;;;;;;;3.60;2.33;;;;;;;;;;8298628;28;20486;-78
2022/05/07 12:14:30;;;;;;;3.92;2.20;;;;;;;;;;8291440;28;20073;-79
2022/05/07 12:18:35;;;;;;;4.68;2.33;;;;;;;;;;8298099;28;20160;-79
2022/05/07 12:31:17;;;;;;;2.72;2.20;;;;;;;;;;8297229;28;20466;-78
2022/05/07 12:35:22;;;;;;;5.25;2.45;;;;;;;;;;8296432;28;20049;-80
2022/05/07 12:39:24;;;;;;;4.70;2.70;;;;;;;;;;8289647;28;20045;-78
2022/05/07 12:43:28;;;;;;;4.20;2.30;;;;;;;;;;8292684;28;20045;-78
2022/05/07 12:47:31;;;;;;;6.15;2.30;;;;;;;;;;8287987;28;20050;-77
2022/05/07 12:51:36;;;;;;;2.75;2.00;;;;;;;;;;8289888;28;20053;-80
2022/05/07 12:55:39;;;;;;;4.38;2.17;;;;;;;;;;8287133;28;20042;-80
2022/05/07 12:59:42;;;;;;;5.60;2.45;;;;;;;;;;8289301;28;20089;-82
2022/05/07 13:03:46;;;;;;;5.68;2.50;;;;;;;;;;8274505;28;20046;-79
2022/05/07 13:07:52;;;;;;;5.53;2.10;;;;;;;;;;8296400;28;20050;-80
2022/05/07 13:11:57;;;;;;;6.85;2.63;;;;;;;;;;8293577;28;20070;-80
2022/05/07 13:16:00;;;;;;;4.25;2.40;;;;;;;;;;8290236;28;20504;-79
2022/05/07 13:20:03;;;;;;;4.43;2.40;;;;;;;;;;8286428;28;20083;-78
2022/05/07 13:24:11;;;;;;;4.28;2.50;;;;;;;;;;8294443;28;20050;-79
2022/05/07 13:28:14;;;;;;;6.90;2.67;;;;;;;;;;8295085;28;20628;-78
2022/05/07 13:32:17;;;;;;;4.20;2.22;;;;;;;;;;8288020;28;20042;-78
2022/05/07 13:36:21;;;;;;;3.90;2.10;;;;;;;;;;8286382;28;20051;-79
2022/05/07 13:40:25;;;;;;;4.75;2.20;;;;;;;;;;8289158;28;20046;-80
2022/05/07 13:44:28;;;;;;;6.25;3.25;;;;;;;;;;8299016;28;20165;-79
2022/05/07 13:48:31;;;;;;;3.80;2.20;;;;;;;;;;8299873;28;20049;-78
2022/05/07 13:52:36;;;;;;;4.10;2.28;;;;;;;;;;8311931;28;20103;-78
2022/05/07 13:56:40;;;;;;;3.08;2.10;;;;;;;;;;8296814;28;20042;-80
2022/05/07 14:00:43;;;;;;;5.50;2.00;;;;;;;;;;8285590;28;20046;-78
2022/05/07 14:04:46;;;;;;;6.18;2.15;;;;;;;;;;8301822;28;20482;-79
2022/05/07 14:08:49;;;;;;;16.73;2.75;;;;;;;;;;8298867;28;20181;-78
2022/05/07 14:12:55;;;;;;;3.47;2.30;;;;;;;;;;8298413;28;20046;-79
2022/05/07 14:16:57;;;;;;;4.80;1.88;;;;;;;;;;8280532;28;20054;-81
2022/05/07 14:21:00;;;;;;;2.47;1.90;;;;;;;;;;8299151;28;20058;-78
2022/05/07 14:25:05;;;;;;;3.60;1.88;;;;;;;;;;8300126;28;20042;-78
2022/05/07 14:29:09;;;;;;;3.80;1.88;;;;;;;;;;8300835;28;20042;-78
2022/05/07 14:33:12;;;;;;;5.65;2.20;;;;;;;;;;8299999;28;20046;-80
2022/05/07 14:37:16;;;;;;;3.60;1.90;;;;;;;;;;8300201;28;20397;-79
2022/05/07 14:41:20;;;;;;;4.00;1.70;;;;;;;;;;8300115;28;20045;-81
2022/05/07 14:45:26;;;;;;;6.40;2.03;;;;;;;;;;8298970;28;20080;-80
2022/05/07 14:49:28;;;;;;;4.60;2.08;;;;;;;;;;8300232;28;20409;-78
2022/05/07 14:53:31;;;;;;;4.47;2.00;;;;;;;;;;8300204;28;20579;-78
2022/05/07 14:57:34;;;;;;;3.78;2.10;;;;;;;;;;8313417;28;20045;-79
2022/05/07 15:01:40;;;;;;;9.05;2.05;;;;;;;;;;8296105;28;20458;-82
2022/05/07 15:05:44;;;;;;;4.53;1.80;;;;;;;;;;8289370;28;20533;-78
2022/05/07 15:14:09;;;;;;;4.50;1.88;;;;;;;;;;8298408;28;20446;-79
2022/05/07 15:18:14;;;;;;;2.45;1.90;;;;;;;;;;8298575;28;20046;-80
2022/05/07 15:22:17;;;;;;;2.88;1.73;;;;;;;;;;8300957;28;20048;-77
2022/05/07 15:26:21;;;;;;;4.53;1.90;;;;;;;;;;8293956;28;20072;-78
2022/05/07 15:30:24;;;;;;;3.28;1.75;;;;;;;;;;8296958;28;20096;-82
2022/05/07 15:38:55;;;;;;;3.83;1.63;;;;;;;;;;8287938;28;20041;-82
2022/05/07 15:42:59;;;;;;;3.45;1.70;;;;;;;;;;8291278;28;20176;-81
2022/05/07 15:47:05;;;;;;;3.00;1.48;;;;;;;;;;8297192;28;20505;-81
2022/05/07 15:51:11;;;;;;;3.92;1.70;;;;;;;;;;8299814;28;20042;-81
2022/05/07 15:55:14;;;;;;;2.10;1.50;;;;;;;;;;8302073;28;20049;-80
2022/05/07 15:59:18;;;;;;;2.95;1.73;;;;;;;;;;8323985;28;20046;-82
2022/05/07 16:03:24;;;;;;;5.43;1.85;;;;;;;;;;8298182;28;20053;-82
2022/05/07 16:07:30;;;;;;;4.25;1.73;;;;;;;;;;8293871;28;20144;-81
2022/05/07 16:11:33;;;;;;;4.65;1.65;;;;;;;;;;8295723;28;20056;-80
2022/05/07 16:15:36;;;;;;;3.20;1.70;;;;;;;;;;8296198;28;20046;-78
2022/05/07 16:19:39;;;;;;;4.03;1.77;;;;;;;;;;8293113;28;20069;-80
2022/05/07 16:28:06;;;;;;;4.28;2.38;;;;;;;;;;8296838;28;20050;-79
2022/05/07 16:32:12;;;;;;;4.18;1.80;;;;;;;;;;8298136;28;20410;-80
2022/05/07 16:36:17;;;;;;;4.65;2.17;;;;;;;;;;8296161;28;20042;-80
2022/05/07 16:40:23;;;;;;;5.05;2.00;;;;;;;;;;8291241;28;20049;-81
2022/05/07 16:44:26;;;;;;;5.65;2.13;;;;;;;;;;8297877;28;20049;-85
2022/05/07 16:48:30;;;;;;;4.18;1.88;;;;;;;;;;8297227;28;20053;-80
2022/05/07 16:52:38;;;;;;;3.08;1.65;;;;;;;;;;8299477;28;20041;-79
2022/05/07 16:56:43;;;;;;;4.72;2.15;;;;;;;;;;8285890;28;20053;-91
2022/05/07 17:00:46;;;;;;;4.72;2.38;;;;;;;;;;8286018;28;20053;-82
2022/05/07 17:04:49;;;;;;;5.60;2.53;;;;;;;;;;8297306;28;20045;-83
2022/05/07 17:08:51;;;;;;;4.55;2.00;;;;;;;;;;8297707;28;20046;-82
2022/05/07 17:12:56;;;;;;;4.07;2.20;;;;;;;;;;8297369;28;20050;-82
2022/05/07 17:16:59;;;;;;;4.55;2.70;;;;;;;;;;8297418;28;20124;-84
2022/05/07 17:21:02;;;;;;;4.80;2.42;;;;;;;;;;8297797;28;20390;-82
2022/05/07 17:25:06;;;;;;;4.22;2.42;;;;;;;;;;8296302;28;20125;-82
2022/05/07 17:29:11;;;;;;;8.55;3.05;;;;;;;;;;8297656;28;20482;-83
2022/05/07 17:33:15;;;;;;;6.28;2.80;;;;;;;;;;8296682;28;20081;-81
2022/05/07 17:37:18;;;;;;;7.47;3.25;;;;;;;;;;8296911;28;20046;-82
2022/05/07 17:41:21;;;;;;;6.25;2.80;;;;;;;;;;8297751;28;20540;-83
2022/05/07 17:45:27;;;;;;;5.50;2.75;;;;;;;;;;8279208;28;20050;-83
2022/05/07 17:49:36;;;;;;;5.03;2.60;;;;;;;;;;8277400;28;20061;-86
2022/05/07 17:54:00;;;;;;;12.70;5.88;;;;;;;;;;8284308;28;20049;-83
2022/05/07 17:58:16;;;;;;;7.55;4.03;;;;;;;;;;8273545;28;20042;-81
2022/05/07 18:02:23;;;;;;;7.18;3.00;;;;;;;;;;8272358;28;20505;-83
2022/05/07 18:06:26;;;;;;;10.95;4.47;;;;;;;;;;8279592;28;20096;-82
2022/05/07 18:10:29;;;;;;;9.02;4.88;;;;;;;;;;8272754;28;20121;-83
2022/05/07 18:14:32;;;;;;;12.52;6.65;;;;;;;;;;8280862;28;20049;-88
2022/05/07 18:18:38;;;;;;;13.48;6.45;;;;;;;;;;8286740;28;20061;-83
2022/05/07 18:22:41;;;;;;;9.20;5.38;;;;;;;;;;8280537;28;20051;-86
2022/05/07 18:26:44;;;;;;;12.63;6.35;;;;;;;;;;8281177;28;20144;-81
2022/05/07 18:30:49;;;;;;;19.70;9.10;;;;;;;;;;8282614;28;20038;-82
2022/05/07 18:34:53;;;;;;;17.73;8.27;;;;;;;;;;8291832;28;20482;-82
2022/05/07 18:43:17;;;;;;;29.48;15.52;;;;;;;;;;8292171;28;20046;-82
2022/05/07 18:47:20;;;;;;;18.85;11.13;;;;;;;;;;8286276;28;20045;-82
2022/05/07 18:51:25;;;;;;;14.48;9.52;;;;;;;;;;8282439;28;20137;-85
2022/05/07 18:59:55;;;;;;;19.58;10.90;;;;;;;;;;8290377;28;20046;-83
2022/05/07 19:03:58;;;;;;;19.75;12.05;;;;;;;;;;8297213;28;20116;-82
2022/05/07 19:08:03;;;;;;;20.80;12.57;;;;;;;;;;8301654;28;20048;-82
2022/05/07 19:12:10;;;;;;;13.23;7.93;;;;;;;;;;8283753;28;20383;-83
2022/05/07 19:16:13;;;;;;;11.98;7.55;;;;;;;;;;8300813;28;20050;-82
2022/05/07 19:20:17;;;;;;;19.55;10.25;;;;;;;;;;8296765;28;20057;-83
2022/05/07 19:24:24;;;;;;;18.80;9.20;;;;;;;;;;8299632;28;20461;-83
2022/05/07 19:28:27;;;;;;;13.20;6.80;;;;;;;;;;8300995;28;20498;-83
2022/05/07 19:32:33;;;;;;;10.38;5.25;;;;;;;;;;8300635;28;20050;-83
2022/05/07 19:36:37;;;;;;;13.60;5.05;;;;;;;;;;8300572;28;20061;-83
2022/05/07 19:40:43;;;;;;;8.65;5.05;;;;;;;;;;8300256;28;20052;-82
2022/05/07 19:44:46;;;;;;;9.52;5.00;;;;;;;;;;8300524;28;20052;-83
2022/05/07 19:48:50;;;;;;;13.70;5.28;;;;;;;;;;8300299;28;20048;-82
2022/05/07 19:52:54;;;;;;;6.85;4.03;;;;;;;;;;8299819;28;20045;-83
2022/05/07 19:56:59;;;;;;;9.68;4.05;;;;;;;;;;8300192;28;20046;-82
2022/05/07 20:01:02;;;;;;;8.18;4.07;;;;;;;;;;8300583;28;20054;-82
2022/05/07 20:05:07;;;;;;;7.28;4.38;;;;;;;;;;8292102;28;20127;-83
2022/05/07 20:09:10;;;;;;;6.40;3.88;;;;;;;;;;8300222;28;20072;-82
2022/05/07 20:13:16;;;;;;;6.55;3.50;;;;;;;;;;8299777;28;20061;-82
2022/05/07 20:17:19;;;;;;;8.63;3.47;;;;;;;;;;8299380;28;20501;-82
2022/05/07 20:25:42;;;;;;;7.55;4.68;;;;;;;;;;8299295;28;20138;-82
2022/05/07 20:29:47;;;;;;;9.63;5.15;;;;;;;;;;8298680;28;20481;-82
2022/05/07 20:33:49;;;;;;;8.13;4.13;;;;;;;;;;8299347;28;20074;-82
2022/05/07 20:37:52;;;;;;;6.50;3.70;;;;;;;;;;8298790;28;20050;-82
2022/05/07 20:41:55;;;;;;;8.60;4.18;;;;;;;;;;8298129;28;20108;-82
2022/05/07 20:50:21;;;;;;;5.65;3.60;;;;;;;;;;8292195;28;20054;-84
2022/05/07 20:54:25;;;;;;;7.35;4.60;;;;;;;;;;8292988;28;20497;-82
2022/05/07 20:58:29;;;;;;;9.93;5.65;;;;;;;;;;8295773;28;20620;-83
2022/05/07 21:02:36;;;;;;;7.50;4.60;;;;;;;;;;8290344;28;20061;-83
2022/05/07 21:06:40;;;;;;;10.07;4.20;;;;;;;;;;8293997;28;20126;-82
2022/05/07 21:10:43;;;;;;;7.32;4.35;;;;;;;;;;8297104;28;20533;-83
2022/05/07 21:14:46;;;;;;;9.48;4.13;;;;;;;;;;8297422;28;20145;-85
2022/05/07 21:18:51;;;;;;;7.38;4.43;;;;;;;;;;8296937;28;20054;-86
2022/05/07 21:22:53;;;;;;;8.43;4.07;;;;;;;;;;8305080;28;20129;-82
2022/05/07 21:26:56;;;;;;;7.20;4.43;;;;;;;;;;8297463;28;20050;-82
2022/05/07 21:31:01;;;;;;;5.95;3.72;;;;;;;;;;8295982;28;20496;-82
2022/05/07 21:35:06;;;;;;;6.57;4.13;;;;;;;;;;8284299;28;20054;-82
2022/05/07 21:39:09;;;;;;;6.78;3.63;;;;;;;;;;8277926;28;20049;-83
2022/05/07 21:43:12;;;;;;;6.75;3.63;;;;;;;;;;8284966;28;20181;-83
2022/05/07 21:47:15;;;;;;;6.38;3.70;;;;;;;;;;8288284;28;20049;-82
2022/05/07 21:51:37;;;;;;;4.70;3.13;;;;;;;;;;8294427;28;20042;-82
2022/05/07 21:55:40;;;;;;;6.13;3.22;;;;;;;;;;8290488;28;20402;-82
2022/05/07 21:59:45;;;;;;;6.88;3.47;;;;;;;;;;8294178;28;20049;-83
2022/05/07 22:03:47;;;;;;;9.27;3.80;;;;;;;;;;8297837;28;20076;-82
2022/05/07 22:07:51;;;;;;;5.88;3.33;;;;;;;;;;8301301;28;20046;-82
2022/05/07 22:11:54;;;;;;;6.00;3.78;;;;;;;;;;8298476;28;20042;-82
2022/05/07 22:15:57;;;;;;;7.10;4.25;;;;;;;;;;8301294;28;20140;-83
2022/05/07 22:20:00;;;;;;;5.88;3.40;;;;;;;;;;8301278;28;20058;-82
2022/05/07 22:24:04;;;;;;;7.05;3.92;;;;;;;;;;8288671;28;20041;-82
2022/05/07 22:28:07;;;;;;;6.43;3.83;;;;;;;;;;8302740;28;20042;-82
2022/05/07 22:32:10;;;;;;;7.78;4.22;;;;;;;;;;8302017;28;20072;-82
2022/05/07 22:36:13;;;;;;;5.93;3.70;;;;;;;;;;8302192;28;20046;-83
2022/05/07 22:40:17;;;;;;;6.53;4.05;;;;;;;;;;8301625;28;20148;-82
2022/05/07 22:44:19;;;;;;;7.03;4.20;;;;;;;;;;8331960;28;20053;-82
2022/05/07 22:48:22;;;;;;;8.00;4.28;;;;;;;;;;8309389;28;20078;-83
2022/05/07 22:52:25;;;;;;;7.32;4.22;;;;;;;;;;8299259;28;20053;-83
2022/05/07 22:56:29;;;;;;;7.30;4.18;;;;;;;;;;8298303;28;20425;-83
2022/05/07 23:00:32;;;;;;;7.97;4.95;;;;;;;;;;8298246;28;20541;-84
2022/05/07 23:04:35;;;;;;;7.80;4.30;;;;;;;;;;8299044;28;20042;-85
2022/05/07 23:08:38;;;;;;;9.50;4.38;;;;;;;;;;8300477;28;20412;-85
2022/05/07 23:12:42;;;;;;;8.07;4.80;;;;;;;;;;8298899;28;20046;-82
2022/05/07 23:16:44;;;;;;;7.65;4.97;;;;;;;;;;8298543;28;20482;-83
2022/05/07 23:20:47;;;;;;;9.65;5.32;;;;;;;;;;8299363;28;20474;-82
2022/05/07 23:24:49;;;;;;;8.82;5.25;;;;;;;;;;8298729;28;20065;-82
2022/05/07 23:28:54;;;;;;;9.02;5.25;;;;;;;;;;8294084;28;20038;-82
2022/05/07 23:32:56;;;;;;;11.95;5.22;;;;;;;;;;8283433;28;20076;-83
2022/05/07 23:36:59;;;;;;;8.98;5.25;;;;;;;;;;8329737;28;20042;-82
2022/05/07 23:41:01;;;;;;;11.25;5.43;;;;;;;;;;8303686;28;20046;-82
2022/05/07 23:45:07;;;;;;;11.23;5.15;;;;;;;;;;8309750;28;20054;-82
2022/05/07 23:49:09;;;;;;;11.20;5.65;;;;;;;;;;8326540;28;20076;-83
2022/05/07 23:53:12;;;;;;;9.68;6.30;;;;;;;;;;8304121;28;20042;-83
2022/05/07 23:57:15;;;;;;;12.10;5.32;;;;;;;;;;8302837;28;20045;-84
